Urb El Rosario, Puerto Rico
Current Conditions -  °F | °C
As of 11:50 AM on Sunday 23 Nov 2014 (Local Time) from TJBQ Reporting Station
Scattered Clouds Scattered Clouds  
Wind Chill: 84°   Ceiling: Unl
Heat Index: 91°   Visibility: 10mi
Dew Point: 73°   Wind: 20mph
Humidity: 70%   Direction: 80°E
Pressure: 30.05"   Gusts: 25mph
Location:  18.0306°N, 66.8507°W
Report Text: TJBQ 231550Z 08017G22KT 10SM SCT023 SCTSCT049 29/23 A3005 RMK RWY 08 ATIS J
Loading
Personal Weather Stations






























Interactive Weather Map New forecast layout! Learn more

10-Day Weather Forecast

Advertisements
Track Severe Weather on mobile